sensor_id;sensor_type;location;lat;lon;timestamp;P1;durP1;ratioP1;P2;durP2;ratioP2
25127;SDS011;13107;51.304;6.866;2022-12-18T00:01:27;12.18;;;5.68;;
25127;SDS011;13107;51.304;6.866;2022-12-18T00:05:29;11.52;;;4.85;;
25127;SDS011;13107;51.304;6.866;2022-12-18T00:09:31;8.95;;;5.10;;
25127;SDS011;13107;51.304;6.866;2022-12-18T00:13:40;11.00;;;5.50;;
25127;SDS011;13107;51.304;6.866;2022-12-18T00:17:43;9.95;;;5.05;;
25127;SDS011;13107;51.304;6.866;2022-12-18T00:21:44;10.20;;;4.82;;
25127;SDS011;13107;51.304;6.866;2022-12-18T00:25:46;11.02;;;5.40;;
25127;SDS011;13107;51.304;6.866;2022-12-18T00:29:48;7.43;;;4.50;;
25127;SDS011;13107;51.304;6.866;2022-12-18T00:33:50;9.23;;;4.70;;
25127;SDS011;13107;51.304;6.866;2022-12-18T00:37:55;9.25;;;4.75;;
25127;SDS011;13107;51.304;6.866;2022-12-18T00:41:57;8.70;;;5.25;;
25127;SDS011;13107;51.304;6.866;2022-12-18T00:46:17;12.95;;;5.15;;
25127;SDS011;13107;51.304;6.866;2022-12-18T00:50:20;10.77;;;4.78;;
25127;SDS011;13107;51.304;6.866;2022-12-18T00:54:22;9.02;;;5.18;;
25127;SDS011;13107;51.304;6.866;2022-12-18T00:58:24;9.50;;;4.60;;
25127;SDS011;13107;51.304;6.866;2022-12-18T01:02:26;8.43;;;4.62;;
25127;SDS011;13107;51.304;6.866;2022-12-18T01:06:29;10.90;;;5.37;;
25127;SDS011;13107;51.304;6.866;2022-12-18T01:10:30;9.82;;;5.43;;
25127;SDS011;13107;51.304;6.866;2022-12-18T01:14:32;8.43;;;4.68;;
25127;SDS011;13107;51.304;6.866;2022-12-18T01:18:34;11.20;;;5.28;;
25127;SDS011;13107;51.304;6.866;2022-12-18T01:22:36;10.10;;;5.18;;
25127;SDS011;13107;51.304;6.866;2022-12-18T01:26:38;10.80;;;5.15;;
25127;SDS011;13107;51.304;6.866;2022-12-18T01:30:40;12.45;;;5.72;;
25127;SDS011;13107;51.304;6.866;2022-12-18T01:34:41;9.88;;;4.68;;
25127;SDS011;13107;51.304;6.866;2022-12-18T01:38:43;8.52;;;4.60;;
25127;SDS011;13107;51.304;6.866;2022-12-18T01:42:49;8.68;;;4.90;;
25127;SDS011;13107;51.304;6.866;2022-12-18T01:46:54;11.00;;;5.82;;
25127;SDS011;13107;51.304;6.866;2022-12-18T01:50:56;11.07;;;5.18;;
25127;SDS011;13107;51.304;6.866;2022-12-18T01:54:57;8.70;;;5.22;;
25127;SDS011;13107;51.304;6.866;2022-12-18T01:59:04;9.65;;;5.32;;
25127;SDS011;13107;51.304;6.866;2022-12-18T02:03:09;12.65;;;6.05;;
25127;SDS011;13107;51.304;6.866;2022-12-18T02:07:17;11.20;;;5.50;;
25127;SDS011;13107;51.304;6.866;2022-12-18T02:15:49;11.40;;;5.70;;
25127;SDS011;13107;51.304;6.866;2022-12-18T02:28:14;11.57;;;5.68;;
25127;SDS011;13107;51.304;6.866;2022-12-18T02:32:20;9.75;;;5.37;;
25127;SDS011;13107;51.304;6.866;2022-12-18T02:36:27;10.60;;;5.72;;
25127;SDS011;13107;51.304;6.866;2022-12-18T02:40:30;10.65;;;5.10;;
25127;SDS011;13107;51.304;6.866;2022-12-18T02:44:33;10.48;;;5.20;;
25127;SDS011;13107;51.304;6.866;2022-12-18T02:48:36;12.07;;;5.12;;
25127;SDS011;13107;51.304;6.866;2022-12-18T02:52:43;11.05;;;4.57;;
25127;SDS011;13107;51.304;6.866;2022-12-18T02:56:57;11.65;;;5.55;;
25127;SDS011;13107;51.304;6.866;2022-12-18T03:01:28;12.93;;;5.25;;
25127;SDS011;13107;51.304;6.866;2022-12-18T03:05:51;8.10;;;5.07;;
25127;SDS011;13107;51.304;6.866;2022-12-18T03:10:07;10.38;;;5.10;;
25127;SDS011;13107;51.304;6.866;2022-12-18T03:14:12;9.48;;;5.37;;
25127;SDS011;13107;51.304;6.866;2022-12-18T03:18:19;9.95;;;5.12;;
25127;SDS011;13107;51.304;6.866;2022-12-18T03:22:27;13.15;;;4.87;;
25127;SDS011;13107;51.304;6.866;2022-12-18T03:26:31;8.13;;;4.87;;
25127;SDS011;13107;51.304;6.866;2022-12-18T03:30:37;11.18;;;4.78;;
25127;SDS011;13107;51.304;6.866;2022-12-18T03:34:41;11.38;;;4.70;;
25127;SDS011;13107;51.304;6.866;2022-12-18T03:38:44;8.60;;;4.35;;
25127;SDS011;13107;51.304;6.866;2022-12-18T03:42:48;6.97;;;4.35;;
25127;SDS011;13107;51.304;6.866;2022-12-18T03:51:18;6.80;;;4.15;;
25127;SDS011;13107;51.304;6.866;2022-12-18T03:55:26;7.05;;;3.90;;
25127;SDS011;13107;51.304;6.866;2022-12-18T03:59:30;8.13;;;4.40;;
25127;SDS011;13107;51.304;6.866;2022-12-18T04:03:34;8.10;;;4.25;;
25127;SDS011;13107;51.304;6.866;2022-12-18T04:07:38;8.20;;;4.10;;
25127;SDS011;13107;51.304;6.866;2022-12-18T04:11:41;8.05;;;4.22;;
25127;SDS011;13107;51.304;6.866;2022-12-18T04:15:46;8.80;;;3.97;;
25127;SDS011;13107;51.304;6.866;2022-12-18T04:19:48;7.12;;;3.70;;
25127;SDS011;13107;51.304;6.866;2022-12-18T04:23:49;9.50;;;4.20;;
25127;SDS011;13107;51.304;6.866;2022-12-18T04:27:51;8.52;;;4.32;;
25127;SDS011;13107;51.304;6.866;2022-12-18T04:31:53;6.62;;;3.85;;
25127;SDS011;13107;51.304;6.866;2022-12-18T04:35:55;6.10;;;3.70;;
25127;SDS011;13107;51.304;6.866;2022-12-18T04:39:57;8.52;;;4.10;;
25127;SDS011;13107;51.304;6.866;2022-12-18T04:43:58;5.87;;;3.75;;
25127;SDS011;13107;51.304;6.866;2022-12-18T04:48:00;5.85;;;3.50;;
25127;SDS011;13107;51.304;6.866;2022-12-18T04:52:03;6.28;;;3.25;;
25127;SDS011;13107;51.304;6.866;2022-12-18T04:56:12;5.53;;;3.00;;
25127;SDS011;13107;51.304;6.866;2022-12-18T05:00:15;7.20;;;3.50;;
25127;SDS011;13107;51.304;6.866;2022-12-18T05:04:17;7.82;;;3.75;;
25127;SDS011;13107;51.304;6.866;2022-12-18T05:08:20;6.93;;;2.95;;
25127;SDS011;13107;51.304;6.866;2022-12-18T05:12:24;7.32;;;3.30;;
25127;SDS011;13107;51.304;6.866;2022-12-18T05:16:26;5.15;;;3.08;;
25127;SDS011;13107;51.304;6.866;2022-12-18T05:20:28;7.70;;;3.03;;
25127;SDS011;13107;51.304;6.866;2022-12-18T05:24:30;5.78;;;3.15;;
25127;SDS011;13107;51.304;6.866;2022-12-18T05:28:32;6.05;;;2.95;;
25127;SDS011;13107;51.304;6.866;2022-12-18T05:32:35;4.72;;;3.08;;
25127;SDS011;13107;51.304;6.866;2022-12-18T05:36:37;5.35;;;2.65;;
25127;SDS011;13107;51.304;6.866;2022-12-18T05:40:41;6.03;;;3.42;;
25127;SDS011;13107;51.304;6.866;2022-12-18T05:44:43;6.75;;;3.45;;
25127;SDS011;13107;51.304;6.866;2022-12-18T05:48:45;5.37;;;2.70;;
25127;SDS011;13107;51.304;6.866;2022-12-18T05:52:47;6.60;;;3.50;;
25127;SDS011;13107;51.304;6.866;2022-12-18T05:56:49;6.32;;;3.05;;
25127;SDS011;13107;51.304;6.866;2022-12-18T06:00:50;5.15;;;2.85;;
25127;SDS011;13107;51.304;6.866;2022-12-18T06:04:52;5.57;;;3.05;;
25127;SDS011;13107;51.304;6.866;2022-12-18T06:08:54;6.00;;;3.28;;
25127;SDS011;13107;51.304;6.866;2022-12-18T06:12:56;6.22;;;2.70;;
25127;SDS011;13107;51.304;6.866;2022-12-18T06:16:58;6.03;;;2.95;;
25127;SDS011;13107;51.304;6.866;2022-12-18T06:20:59;6.22;;;3.10;;
25127;SDS011;13107;51.304;6.866;2022-12-18T06:25:01;4.65;;;3.05;;
25127;SDS011;13107;51.304;6.866;2022-12-18T06:29:03;5.68;;;3.35;;
25127;SDS011;13107;51.304;6.866;2022-12-18T06:33:05;5.78;;;3.35;;
25127;SDS011;13107;51.304;6.866;2022-12-18T06:37:07;5.47;;;3.30;;
25127;SDS011;13107;51.304;6.866;2022-12-18T06:41:10;6.10;;;3.60;;
25127;SDS011;13107;51.304;6.866;2022-12-18T06:45:14;7.35;;;3.30;;
25127;SDS011;13107;51.304;6.866;2022-12-18T06:49:15;7.78;;;3.35;;
25127;SDS011;13107;51.304;6.866;2022-12-18T06:53:17;7.47;;;3.92;;
25127;SDS011;13107;51.304;6.866;2022-12-18T06:57:19;8.18;;;3.70;;
25127;SDS011;13107;51.304;6.866;2022-12-18T07:01:20;7.18;;;3.72;;
25127;SDS011;13107;51.304;6.866;2022-12-18T07:05:23;7.45;;;3.95;;
25127;SDS011;13107;51.304;6.866;2022-12-18T07:09:24;6.53;;;3.95;;
25127;SDS011;13107;51.304;6.866;2022-12-18T07:13:26;7.45;;;3.85;;
25127;SDS011;13107;51.304;6.866;2022-12-18T07:17:28;6.47;;;3.78;;
25127;SDS011;13107;51.304;6.866;2022-12-18T07:21:30;8.35;;;3.92;;
25127;SDS011;13107;51.304;6.866;2022-12-18T07:25:35;7.80;;;3.95;;
25127;SDS011;13107;51.304;6.866;2022-12-18T07:29:38;6.90;;;3.30;;
25127;SDS011;13107;51.304;6.866;2022-12-18T07:33:39;8.65;;;3.92;;
25127;SDS011;13107;51.304;6.866;2022-12-18T07:37:42;8.90;;;4.20;;
25127;SDS011;13107;51.304;6.866;2022-12-18T07:41:44;7.55;;;3.92;;
25127;SDS011;13107;51.304;6.866;2022-12-18T07:46:06;9.35;;;4.35;;
25127;SDS011;13107;51.304;6.866;2022-12-18T07:50:08;7.28;;;4.65;;
25127;SDS011;13107;51.304;6.866;2022-12-18T07:54:10;8.75;;;4.12;;
25127;SDS011;13107;51.304;6.866;2022-12-18T07:58:12;9.77;;;4.87;;
25127;SDS011;13107;51.304;6.866;2022-12-18T08:02:13;9.05;;;4.35;;
25127;SDS011;13107;51.304;6.866;2022-12-18T08:06:16;8.00;;;4.72;;
25127;SDS011;13107;51.304;6.866;2022-12-18T08:10:17;10.32;;;5.12;;
25127;SDS011;13107;51.304;6.866;2022-12-18T08:14:19;9.95;;;5.22;;
25127;SDS011;13107;51.304;6.866;2022-12-18T08:18:21;8.57;;;4.85;;
25127;SDS011;13107;51.304;6.866;2022-12-18T08:22:23;8.85;;;4.90;;
25127;SDS011;13107;51.304;6.866;2022-12-18T08:26:25;9.35;;;4.93;;
25127;SDS011;13107;51.304;6.866;2022-12-18T08:30:28;10.02;;;4.78;;
25127;SDS011;13107;51.304;6.866;2022-12-18T08:34:30;8.35;;;4.68;;
25127;SDS011;13107;51.304;6.866;2022-12-18T08:38:35;9.38;;;4.72;;
25127;SDS011;13107;51.304;6.866;2022-12-18T08:42:37;7.53;;;4.50;;
25127;SDS011;13107;51.304;6.866;2022-12-18T08:46:57;9.25;;;4.80;;
25127;SDS011;13107;51.304;6.866;2022-12-18T08:50:59;8.75;;;4.40;;
25127;SDS011;13107;51.304;6.866;2022-12-18T08:55:01;8.20;;;4.55;;
25127;SDS011;13107;51.304;6.866;2022-12-18T08:59:02;8.45;;;4.20;;
25127;SDS011;13107;51.304;6.866;2022-12-18T09:03:05;7.80;;;4.47;;
25127;SDS011;13107;51.304;6.866;2022-12-18T09:07:12;8.20;;;4.72;;
25127;SDS011;13107;51.304;6.866;2022-12-18T09:11:17;8.18;;;5.05;;
25127;SDS011;13107;51.304;6.866;2022-12-18T09:15:22;9.88;;;4.68;;
25127;SDS011;13107;51.304;6.866;2022-12-18T09:19:23;9.45;;;4.25;;
25127;SDS011;13107;51.304;6.866;2022-12-18T09:23:25;7.43;;;4.43;;
25127;SDS011;13107;51.304;6.866;2022-12-18T09:27:27;9.45;;;4.53;;
25127;SDS011;13107;51.304;6.866;2022-12-18T09:31:28;7.05;;;4.18;;
25127;SDS011;13107;51.304;6.866;2022-12-18T09:35:30;7.28;;;4.20;;
25127;SDS011;13107;51.304;6.866;2022-12-18T09:39:35;9.48;;;4.62;;
25127;SDS011;13107;51.304;6.866;2022-12-18T09:43:40;8.63;;;4.50;;
25127;SDS011;13107;51.304;6.866;2022-12-18T09:47:51;9.32;;;4.80;;
25127;SDS011;13107;51.304;6.866;2022-12-18T09:52:00;8.27;;;4.22;;
25127;SDS011;13107;51.304;6.866;2022-12-18T09:56:06;6.57;;;3.92;;
25127;SDS011;13107;51.304;6.866;2022-12-18T10:00:18;8.85;;;4.45;;
25127;SDS011;13107;51.304;6.866;2022-12-18T10:04:23;8.37;;;4.40;;
25127;SDS011;13107;51.304;6.866;2022-12-18T10:08:46;7.78;;;4.05;;
25127;SDS011;13107;51.304;6.866;2022-12-18T10:12:57;8.73;;;4.62;;
25127;SDS011;13107;51.304;6.866;2022-12-18T10:17:33;8.40;;;4.68;;
25127;SDS011;13107;51.304;6.866;2022-12-18T10:21:39;7.78;;;4.37;;
25127;SDS011;13107;51.304;6.866;2022-12-18T10:30:17;8.90;;;4.55;;
25127;SDS011;13107;51.304;6.866;2022-12-18T10:34:21;9.82;;;4.95;;
25127;SDS011;13107;51.304;6.866;2022-12-18T10:38:25;8.45;;;4.93;;
25127;SDS011;13107;51.304;6.866;2022-12-18T10:46:33;8.23;;;4.90;;
25127;SDS011;13107;51.304;6.866;2022-12-18T10:50:35;9.48;;;4.82;;
25127;SDS011;13107;51.304;6.866;2022-12-18T10:54:58;10.43;;;5.00;;
25127;SDS011;13107;51.304;6.866;2022-12-18T10:59:05;9.55;;;5.00;;
25127;SDS011;13107;51.304;6.866;2022-12-18T11:03:58;9.05;;;4.82;;
25127;SDS011;13107;51.304;6.866;2022-12-18T11:07:48;9.50;;;4.55;;
25127;SDS011;13107;51.304;6.866;2022-12-18T11:11:53;9.10;;;5.03;;
25127;SDS011;13107;51.304;6.866;2022-12-18T11:15:56;8.93;;;4.93;;
25127;SDS011;13107;51.304;6.866;2022-12-18T11:20:05;9.32;;;5.18;;
25127;SDS011;13107;51.304;6.866;2022-12-18T11:24:28;11.07;;;4.80;;
25127;SDS011;13107;51.304;6.866;2022-12-18T11:28:43;9.05;;;4.87;;
25127;SDS011;13107;51.304;6.866;2022-12-18T11:32:48;9.35;;;4.97;;
25127;SDS011;13107;51.304;6.866;2022-12-18T11:37:11;8.20;;;4.87;;
25127;SDS011;13107;51.304;6.866;2022-12-18T11:41:34;9.57;;;5.47;;
25127;SDS011;13107;51.304;6.866;2022-12-18T11:46:10;9.93;;;5.12;;
25127;SDS011;13107;51.304;6.866;2022-12-18T11:50:31;8.32;;;4.78;;
25127;SDS011;13107;51.304;6.866;2022-12-18T11:54:52;8.90;;;4.87;;
25127;SDS011;13107;51.304;6.866;2022-12-18T11:59:05;10.15;;;5.93;;
25127;SDS011;13107;51.304;6.866;2022-12-18T12:12:10;10.80;;;5.47;;
25127;SDS011;13107;51.304;6.866;2022-12-18T12:20:58;13.30;;;7.10;;
25127;SDS011;13107;51.304;6.866;2022-12-18T12:30:00;10.50;;;6.03;;
25127;SDS011;13107;51.304;6.866;2022-12-18T12:34:21;12.40;;;6.35;;
25127;SDS011;13107;51.304;6.866;2022-12-18T12:38:33;13.62;;;6.12;;
25127;SDS011;13107;51.304;6.866;2022-12-18T12:42:41;10.73;;;6.45;;
25127;SDS011;13107;51.304;6.866;2022-12-18T12:47:12;11.88;;;6.95;;
25127;SDS011;13107;51.304;6.866;2022-12-18T12:51:22;12.98;;;7.03;;
25127;SDS011;13107;51.304;6.866;2022-12-18T12:55:26;14.18;;;6.45;;
25127;SDS011;13107;51.304;6.866;2022-12-18T13:03:54;15.25;;;7.12;;
25127;SDS011;13107;51.304;6.866;2022-12-18T13:08:12;14.43;;;7.43;;
25127;SDS011;13107;51.304;6.866;2022-12-18T13:12:27;13.77;;;7.50;;
25127;SDS011;13107;51.304;6.866;2022-12-18T13:16:48;14.05;;;7.50;;
25127;SDS011;13107;51.304;6.866;2022-12-18T13:20:51;13.85;;;7.47;;
25127;SDS011;13107;51.304;6.866;2022-12-18T13:25:26;14.75;;;7.87;;
25127;SDS011;13107;51.304;6.866;2022-12-18T13:29:44;13.57;;;8.02;;
25127;SDS011;13107;51.304;6.866;2022-12-18T13:33:47;16.15;;;8.55;;
25127;SDS011;13107;51.304;6.866;2022-12-18T13:38:43;16.00;;;8.35;;
25127;SDS011;13107;51.304;6.866;2022-12-18T13:42:39;17.05;;;9.15;;
25127;SDS011;13107;51.304;6.866;2022-12-18T13:47:01;15.15;;;8.15;;
25127;SDS011;13107;51.304;6.866;2022-12-18T13:51:09;16.37;;;8.20;;
25127;SDS011;13107;51.304;6.866;2022-12-18T13:55:15;16.67;;;9.00;;
25127;SDS011;13107;51.304;6.866;2022-12-18T13:59:20;15.93;;;8.93;;
25127;SDS011;13107;51.304;6.866;2022-12-18T14:03:26;15.60;;;8.57;;
25127;SDS011;13107;51.304;6.866;2022-12-18T14:07:30;16.55;;;8.88;;
25127;SDS011;13107;51.304;6.866;2022-12-18T14:11:46;17.08;;;9.00;;
25127;SDS011;13107;51.304;6.866;2022-12-18T14:15:51;20.33;;;9.32;;
25127;SDS011;13107;51.304;6.866;2022-12-18T14:19:55;17.80;;;9.05;;
25127;SDS011;13107;51.304;6.866;2022-12-18T14:24:12;16.55;;;9.10;;
25127;SDS011;13107;51.304;6.866;2022-12-18T14:28:20;17.17;;;9.32;;
25127;SDS011;13107;51.304;6.866;2022-12-18T14:32:23;16.33;;;9.13;;
25127;SDS011;13107;51.304;6.866;2022-12-18T14:36:26;17.25;;;9.27;;
25127;SDS011;13107;51.304;6.866;2022-12-18T14:40:28;17.92;;;9.73;;
25127;SDS011;13107;51.304;6.866;2022-12-18T14:44:30;16.85;;;10.02;;
25127;SDS011;13107;51.304;6.866;2022-12-18T14:48:51;16.23;;;9.15;;
25127;SDS011;13107;51.304;6.866;2022-12-18T14:52:53;19.33;;;10.75;;
25127;SDS011;13107;51.304;6.866;2022-12-18T15:01:07;22.20;;;11.43;;
25127;SDS011;13107;51.304;6.866;2022-12-18T15:09:22;21.90;;;10.30;;
25127;SDS011;13107;51.304;6.866;2022-12-18T15:13:26;18.25;;;10.23;;
25127;SDS011;13107;51.304;6.866;2022-12-18T15:17:28;20.75;;;10.25;;
25127;SDS011;13107;51.304;6.866;2022-12-18T15:21:29;19.98;;;10.50;;
25127;SDS011;13107;51.304;6.866;2022-12-18T15:25:34;19.52;;;10.70;;
25127;SDS011;13107;51.304;6.866;2022-12-18T15:29:40;20.45;;;10.88;;
25127;SDS011;13107;51.304;6.866;2022-12-18T15:37:47;25.92;;;10.55;;
25127;SDS011;13107;51.304;6.866;2022-12-18T15:41:49;19.55;;;11.05;;
25127;SDS011;13107;51.304;6.866;2022-12-18T15:46:14;19.00;;;9.90;;
25127;SDS011;13107;51.304;6.866;2022-12-18T15:50:17;19.27;;;10.43;;
25127;SDS011;13107;51.304;6.866;2022-12-18T15:54:19;21.27;;;10.50;;
25127;SDS011;13107;51.304;6.866;2022-12-18T15:58:41;21.83;;;11.57;;
25127;SDS011;13107;51.304;6.866;2022-12-18T16:02:43;19.17;;;10.93;;
25127;SDS011;13107;51.304;6.866;2022-12-18T16:06:45;19.73;;;10.70;;
25127;SDS011;13107;51.304;6.866;2022-12-18T16:15:45;21.70;;;11.12;;
25127;SDS011;13107;51.304;6.866;2022-12-18T16:19:46;20.95;;;12.25;;
25127;SDS011;13107;51.304;6.866;2022-12-18T16:23:48;26.95;;;12.40;;
25127;SDS011;13107;51.304;6.866;2022-12-18T16:27:50;21.35;;;12.32;;
25127;SDS011;13107;51.304;6.866;2022-12-18T16:31:53;26.20;;;13.82;;
25127;SDS011;13107;51.304;6.866;2022-12-18T16:35:56;22.50;;;12.70;;
25127;SDS011;13107;51.304;6.866;2022-12-18T16:39:57;26.73;;;12.95;;
25127;SDS011;13107;51.304;6.866;2022-12-18T16:43:59;22.90;;;12.95;;
25127;SDS011;13107;51.304;6.866;2022-12-18T16:48:01;23.85;;;13.15;;
25127;SDS011;13107;51.304;6.866;2022-12-18T16:52:03;19.95;;;11.68;;
25127;SDS011;13107;51.304;6.866;2022-12-18T16:56:05;21.67;;;13.62;;
25127;SDS011;13107;51.304;6.866;2022-12-18T17:00:07;23.67;;;13.50;;
25127;SDS011;13107;51.304;6.866;2022-12-18T17:04:09;24.95;;;13.73;;
25127;SDS011;13107;51.304;6.866;2022-12-18T17:08:11;24.90;;;13.73;;
25127;SDS011;13107;51.304;6.866;2022-12-18T17:12:13;25.62;;;13.98;;
25127;SDS011;13107;51.304;6.866;2022-12-18T17:16:14;28.35;;;14.38;;
25127;SDS011;13107;51.304;6.866;2022-12-18T17:20:17;26.27;;;14.52;;
25127;SDS011;13107;51.304;6.866;2022-12-18T17:24:20;24.87;;;14.13;;
25127;SDS011;13107;51.304;6.866;2022-12-18T17:28:22;27.45;;;14.43;;
25127;SDS011;13107;51.304;6.866;2022-12-18T17:32:26;26.92;;;14.00;;
25127;SDS011;13107;51.304;6.866;2022-12-18T17:36:28;28.50;;;14.90;;
25127;SDS011;13107;51.304;6.866;2022-12-18T17:40:32;30.02;;;15.15;;
25127;SDS011;13107;51.304;6.866;2022-12-18T17:44:33;28.95;;;14.87;;
25127;SDS011;13107;51.304;6.866;2022-12-18T17:48:35;29.48;;;15.93;;
25127;SDS011;13107;51.304;6.866;2022-12-18T17:52:38;33.70;;;15.93;;
25127;SDS011;13107;51.304;6.866;2022-12-18T17:56:40;27.00;;;15.65;;
25127;SDS011;13107;51.304;6.866;2022-12-18T18:00:42;29.27;;;15.63;;
25127;SDS011;13107;51.304;6.866;2022-12-18T18:04:43;30.12;;;15.10;;
25127;SDS011;13107;51.304;6.866;2022-12-18T18:08:45;31.37;;;16.95;;
25127;SDS011;13107;51.304;6.866;2022-12-18T18:12:47;28.12;;;14.68;;
25127;SDS011;13107;51.304;6.866;2022-12-18T18:17:07;28.50;;;16.02;;
25127;SDS011;13107;51.304;6.866;2022-12-18T18:21:08;32.22;;;15.95;;
25127;SDS011;13107;51.304;6.866;2022-12-18T18:25:10;33.58;;;17.25;;
25127;SDS011;13107;51.304;6.866;2022-12-18T18:29:14;29.77;;;15.68;;
25127;SDS011;13107;51.304;6.866;2022-12-18T18:33:18;32.95;;;17.10;;
25127;SDS011;13107;51.304;6.866;2022-12-18T18:37:19;33.72;;;16.67;;
25127;SDS011;13107;51.304;6.866;2022-12-18T18:41:21;33.90;;;16.83;;
25127;SDS011;13107;51.304;6.866;2022-12-18T18:45:24;33.63;;;16.02;;
25127;SDS011;13107;51.304;6.866;2022-12-18T18:49:26;29.17;;;16.25;;
25127;SDS011;13107;51.304;6.866;2022-12-18T18:53:28;36.90;;;18.15;;
25127;SDS011;13107;51.304;6.866;2022-12-18T18:57:30;31.65;;;17.17;;
25127;SDS011;13107;51.304;6.866;2022-12-18T19:01:33;33.35;;;17.20;;
25127;SDS011;13107;51.304;6.866;2022-12-18T19:05:35;32.60;;;16.55;;
25127;SDS011;13107;51.304;6.866;2022-12-18T19:09:37;34.80;;;17.33;;
25127;SDS011;13107;51.304;6.866;2022-12-18T19:13:39;35.22;;;18.08;;
25127;SDS011;13107;51.304;6.866;2022-12-18T19:17:41;36.90;;;18.35;;
25127;SDS011;13107;51.304;6.866;2022-12-18T19:21:47;33.93;;;17.17;;
25127;SDS011;13107;51.304;6.866;2022-12-18T19:25:50;35.45;;;18.40;;
25127;SDS011;13107;51.304;6.866;2022-12-18T19:30:12;35.95;;;17.60;;
25127;SDS011;13107;51.304;6.866;2022-12-18T19:34:13;36.35;;;19.08;;
25127;SDS011;13107;51.304;6.866;2022-12-18T19:38:15;33.75;;;16.70;;
25127;SDS011;13107;51.304;6.866;2022-12-18T19:42:17;37.70;;;17.30;;
25127;SDS011;13107;51.304;6.866;2022-12-18T19:46:26;37.42;;;18.50;;
25127;SDS011;13107;51.304;6.866;2022-12-18T19:50:28;35.10;;;17.55;;
25127;SDS011;13107;51.304;6.866;2022-12-18T19:54:33;38.08;;;17.37;;
25127;SDS011;13107;51.304;6.866;2022-12-18T19:58:34;34.58;;;15.85;;
25127;SDS011;13107;51.304;6.866;2022-12-18T20:02:36;37.08;;;17.62;;
25127;SDS011;13107;51.304;6.866;2022-12-18T20:06:46;34.03;;;17.33;;
25127;SDS011;13107;51.304;6.866;2022-12-18T20:10:52;32.45;;;17.02;;
25127;SDS011;13107;51.304;6.866;2022-12-18T20:14:54;35.53;;;17.45;;
25127;SDS011;13107;51.304;6.866;2022-12-18T20:18:56;36.88;;;17.37;;
25127;SDS011;13107;51.304;6.866;2022-12-18T20:22:58;32.67;;;17.10;;
25127;SDS011;13107;51.304;6.866;2022-12-18T20:27:00;35.65;;;18.08;;
25127;SDS011;13107;51.304;6.866;2022-12-18T20:31:03;37.10;;;16.83;;
25127;SDS011;13107;51.304;6.866;2022-12-18T20:35:10;35.65;;;17.12;;
25127;SDS011;13107;51.304;6.866;2022-12-18T20:39:13;36.28;;;17.83;;
25127;SDS011;13107;51.304;6.866;2022-12-18T20:43:15;37.65;;;18.48;;
25127;SDS011;13107;51.304;6.866;2022-12-18T20:47:17;32.70;;;17.30;;
25127;SDS011;13107;51.304;6.866;2022-12-18T20:51:20;35.63;;;17.65;;
25127;SDS011;13107;51.304;6.866;2022-12-18T20:55:22;34.28;;;16.25;;
25127;SDS011;13107;51.304;6.866;2022-12-18T20:59:23;36.30;;;18.05;;
25127;SDS011;13107;51.304;6.866;2022-12-18T21:03:26;34.30;;;17.27;;
25127;SDS011;13107;51.304;6.866;2022-12-18T21:07:27;35.03;;;17.58;;
25127;SDS011;13107;51.304;6.866;2022-12-18T21:11:30;34.53;;;17.10;;
25127;SDS011;13107;51.304;6.866;2022-12-18T21:15:52;36.85;;;18.05;;
25127;SDS011;13107;51.304;6.866;2022-12-18T21:19:55;33.15;;;17.55;;
25127;SDS011;13107;51.304;6.866;2022-12-18T21:23:57;34.60;;;18.05;;
25127;SDS011;13107;51.304;6.866;2022-12-18T21:27:58;35.53;;;18.20;;
25127;SDS011;13107;51.304;6.866;2022-12-18T21:32:00;37.17;;;18.23;;
25127;SDS011;13107;51.304;6.866;2022-12-18T21:36:03;36.17;;;16.48;;
25127;SDS011;13107;51.304;6.866;2022-12-18T21:40:06;36.95;;;16.85;;
25127;SDS011;13107;51.304;6.866;2022-12-18T21:44:09;35.63;;;18.52;;
25127;SDS011;13107;51.304;6.866;2022-12-18T21:48:16;38.42;;;18.50;;
25127;SDS011;13107;51.304;6.866;2022-12-18T21:52:18;39.38;;;17.58;;
25127;SDS011;13107;51.304;6.866;2022-12-18T21:56:45;34.53;;;17.35;;
25127;SDS011;13107;51.304;6.866;2022-12-18T22:00:48;38.17;;;17.30;;
25127;SDS011;13107;51.304;6.866;2022-12-18T22:04:50;34.28;;;17.75;;
25127;SDS011;13107;51.304;6.866;2022-12-18T22:08:53;33.00;;;18.23;;
25127;SDS011;13107;51.304;6.866;2022-12-18T22:12:55;37.15;;;18.12;;
25127;SDS011;13107;51.304;6.866;2022-12-18T22:16:56;34.72;;;16.73;;
25127;SDS011;13107;51.304;6.866;2022-12-18T22:21:00;33.00;;;16.45;;
25127;SDS011;13107;51.304;6.866;2022-12-18T22:25:03;35.15;;;17.95;;
25127;SDS011;13107;51.304;6.866;2022-12-18T22:29:05;36.85;;;18.35;;
25127;SDS011;13107;51.304;6.866;2022-12-18T22:33:25;34.17;;;17.60;;
25127;SDS011;13107;51.304;6.866;2022-12-18T22:37:27;36.50;;;18.48;;
25127;SDS011;13107;51.304;6.866;2022-12-18T22:41:29;37.20;;;18.00;;
25127;SDS011;13107;51.304;6.866;2022-12-18T22:45:32;39.35;;;17.70;;
25127;SDS011;13107;51.304;6.866;2022-12-18T22:49:38;35.70;;;18.42;;
25127;SDS011;13107;51.304;6.866;2022-12-18T22:53:40;35.63;;;18.33;;
25127;SDS011;13107;51.304;6.866;2022-12-18T22:57:44;36.78;;;18.33;;
25127;SDS011;13107;51.304;6.866;2022-12-18T23:01:49;38.45;;;17.92;;
25127;SDS011;13107;51.304;6.866;2022-12-18T23:06:05;40.78;;;19.27;;
25127;SDS011;13107;51.304;6.866;2022-12-18T23:10:07;40.50;;;19.25;;
25127;SDS011;13107;51.304;6.866;2022-12-18T23:14:09;36.60;;;17.87;;
25127;SDS011;13107;51.304;6.866;2022-12-18T23:18:11;35.70;;;18.45;;
25127;SDS011;13107;51.304;6.866;2022-12-18T23:22:13;34.13;;;17.30;;
25127;SDS011;13107;51.304;6.866;2022-12-18T23:26:16;36.05;;;19.08;;
25127;SDS011;13107;51.304;6.866;2022-12-18T23:30:20;39.03;;;19.17;;
25127;SDS011;13107;51.304;6.866;2022-12-18T23:34:22;41.17;;;18.33;;
25127;SDS011;13107;51.304;6.866;2022-12-18T23:38:24;36.60;;;19.52;;
25127;SDS011;13107;51.304;6.866;2022-12-18T23:42:25;43.20;;;21.20;;
25127;SDS011;13107;51.304;6.866;2022-12-18T23:46:29;37.28;;;19.65;;
25127;SDS011;13107;51.304;6.866;2022-12-18T23:50:33;42.50;;;20.67;;
25127;SDS011;13107;51.304;6.866;2022-12-18T23:54:35;44.17;;;20.05;;
25127;SDS011;13107;51.304;6.866;2022-12-18T23:58:39;38.88;;;20.37;;
